sensor_id;sensor_type;location;lat;lon;timestamp;pressure;altitude;pressure_sealevel;temperature;humidity
60642;BME280;46837;52.446;-1.930;2024-03-06T00:00:09;100452.96;;;4.76;78.88
60642;BME280;46837;52.446;-1.930;2024-03-06T00:01:09;100456.86;;;4.78;78.88
60642;BME280;46837;52.446;-1.930;2024-03-06T00:02:09;100456.97;;;4.78;78.68
60642;BME280;46837;52.446;-1.930;2024-03-06T00:03:09;100460.35;;;4.80;78.65
60642;BME280;46837;52.446;-1.930;2024-03-06T00:04:09;100458.76;;;4.78;78.42
60642;BME280;46837;52.446;-1.930;2024-03-06T00:05:10;100460.85;;;4.77;78.30
60642;BME280;46837;52.446;-1.930;2024-03-06T00:06:09;100458.96;;;4.76;78.27
60642;BME280;46837;52.446;-1.930;2024-03-06T00:07:09;100460.57;;;4.77;78.12
60642;BME280;46837;52.446;-1.930;2024-03-06T00:08:09;100463.32;;;4.75;77.98
60642;BME280;46837;52.446;-1.930;2024-03-06T00:09:09;100462.53;;;4.74;77.92
60642;BME280;46837;52.446;-1.930;2024-03-06T00:10:09;100460.48;;;4.75;77.88
60642;BME280;46837;52.446;-1.930;2024-03-06T00:11:09;100466.29;;;4.73;77.74
60642;BME280;46837;52.446;-1.930;2024-03-06T00:12:09;100466.97;;;4.71;77.69
60642;BME280;46837;52.446;-1.930;2024-03-06T00:13:09;100466.71;;;4.68;77.73
60642;BME280;46837;52.446;-1.930;2024-03-06T00:14:09;100470.60;;;4.68;77.81
60642;BME280;46837;52.446;-1.930;2024-03-06T00:15:09;100466.94;;;4.68;77.84
60642;BME280;46837;52.446;-1.930;2024-03-06T00:16:09;100472.58;;;4.63;77.83
60642;BME280;46837;52.446;-1.930;2024-03-06T00:17:09;100471.07;;;4.60;77.98
60642;BME280;46837;52.446;-1.930;2024-03-06T00:18:09;100469.08;;;4.57;78.05
60642;BME280;46837;52.446;-1.930;2024-03-06T00:19:09;100467.82;;;4.60;78.12
60642;BME280;46837;52.446;-1.930;2024-03-06T00:20:09;100467.10;;;4.61;78.12
60642;BME280;46837;52.446;-1.930;2024-03-06T00:21:09;100465.73;;;4.61;77.97
60642;BME280;46837;52.446;-1.930;2024-03-06T00:22:09;100466.26;;;4.58;78.01
60642;BME280;46837;52.446;-1.930;2024-03-06T00:23:09;100461.58;;;4.56;78.15
60642;BME280;46837;52.446;-1.930;2024-03-06T00:24:09;100464.27;;;4.59;78.18
60642;BME280;46837;52.446;-1.930;2024-03-06T00:25:09;100464.11;;;4.59;78.18
60642;BME280;46837;52.446;-1.930;2024-03-06T00:26:09;100462.13;;;4.58;78.17
60642;BME280;46837;52.446;-1.930;2024-03-06T00:27:09;100465.33;;;4.58;78.25
60642;BME280;46837;52.446;-1.930;2024-03-06T00:28:09;100462.56;;;4.56;78.35
60642;BME280;46837;52.446;-1.930;2024-03-06T00:29:09;100461.11;;;4.58;78.35
60642;BME280;46837;52.446;-1.930;2024-03-06T00:30:09;100463.31;;;4.58;78.32
60642;BME280;46837;52.446;-1.930;2024-03-06T00:31:09;100461.06;;;4.58;78.31
60642;BME280;46837;52.446;-1.930;2024-03-06T00:32:09;100457.42;;;4.58;78.34
60642;BME280;46837;52.446;-1.930;2024-03-06T00:33:09;100459.19;;;4.59;78.31
60642;BME280;46837;52.446;-1.930;2024-03-06T00:34:09;100459.50;;;4.57;78.20
60642;BME280;46837;52.446;-1.930;2024-03-06T00:35:09;100457.92;;;4.60;78.27
60642;BME280;46837;52.446;-1.930;2024-03-06T00:36:09;100461.86;;;4.57;78.24
60642;BME280;46837;52.446;-1.930;2024-03-06T00:37:09;100463.56;;;4.57;78.31
60642;BME280;46837;52.446;-1.930;2024-03-06T00:38:09;100462.63;;;4.57;78.30
60642;BME280;46837;52.446;-1.930;2024-03-06T00:39:09;100461.04;;;4.58;78.21
60642;BME280;46837;52.446;-1.930;2024-03-06T00:40:09;100465.07;;;4.57;78.24
60642;BME280;46837;52.446;-1.930;2024-03-06T00:41:09;100461.64;;;4.58;78.19
60642;BME280;46837;52.446;-1.930;2024-03-06T00:42:09;100462.98;;;4.58;78.17
60642;BME280;46837;52.446;-1.930;2024-03-06T00:43:09;100463.31;;;4.55;78.26
60642;BME280;46837;52.446;-1.930;2024-03-06T00:44:09;100463.05;;;4.56;78.30
60642;BME280;46837;52.446;-1.930;2024-03-06T00:45:09;100465.32;;;4.54;78.17
60642;BME280;46837;52.446;-1.930;2024-03-06T00:46:09;100465.43;;;4.54;78.17
60642;BME280;46837;52.446;-1.930;2024-03-06T00:47:09;100464.34;;;4.54;78.07
60642;BME280;46837;52.446;-1.930;2024-03-06T00:48:09;100464.81;;;4.50;77.98
60642;BME280;46837;52.446;-1.930;2024-03-06T00:49:09;100466.38;;;4.47;78.01
60642;BME280;46837;52.446;-1.930;2024-03-06T00:50:10;100467.51;;;4.45;78.11
60642;BME280;46837;52.446;-1.930;2024-03-06T00:51:09;100468.50;;;4.44;78.24
60642;BME280;46837;52.446;-1.930;2024-03-06T00:52:09;100468.96;;;4.38;78.36
60642;BME280;46837;52.446;-1.930;2024-03-06T00:53:09;100466.31;;;4.31;78.52
60642;BME280;46837;52.446;-1.930;2024-03-06T00:54:09;100469.60;;;4.26;78.71
60642;BME280;46837;52.446;-1.930;2024-03-06T00:55:09;100467.75;;;4.27;78.93
60642;BME280;46837;52.446;-1.930;2024-03-06T00:56:09;100465.33;;;4.22;78.93
60642;BME280;46837;52.446;-1.930;2024-03-06T00:57:09;100469.17;;;4.25;79.11
60642;BME280;46837;52.446;-1.930;2024-03-06T00:58:09;100467.89;;;4.27;78.96
60642;BME280;46837;52.446;-1.930;2024-03-06T00:59:09;100470.62;;;4.23;78.95
60642;BME280;46837;52.446;-1.930;2024-03-06T01:00:13;100467.87;;;4.25;79.04
60642;BME280;46837;52.446;-1.930;2024-03-06T01:01:09;100469.45;;;4.25;78.96
60642;BME280;46837;52.446;-1.930;2024-03-06T01:02:09;100470.81;;;4.27;78.90
60642;BME280;46837;52.446;-1.930;2024-03-06T01:03:09;100471.09;;;4.29;78.87
60642;BME280;46837;52.446;-1.930;2024-03-06T01:04:09;100475.03;;;4.27;78.67
60642;BME280;46837;52.446;-1.930;2024-03-06T01:05:09;100476.19;;;4.27;78.60
60642;BME280;46837;52.446;-1.930;2024-03-06T01:06:09;100478.80;;;4.26;78.33
60642;BME280;46837;52.446;-1.930;2024-03-06T01:07:09;100474.09;;;4.22;78.14
60642;BME280;46837;52.446;-1.930;2024-03-06T01:08:09;100475.55;;;4.22;78.18
60642;BME280;46837;52.446;-1.930;2024-03-06T01:09:09;100477.72;;;4.21;77.98
60642;BME280;46837;52.446;-1.930;2024-03-06T01:10:09;100477.29;;;4.17;77.94
60642;BME280;46837;52.446;-1.930;2024-03-06T01:11:09;100477.23;;;4.18;78.04
60642;BME280;46837;52.446;-1.930;2024-03-06T01:12:09;100475.96;;;4.14;77.91
60642;BME280;46837;52.446;-1.930;2024-03-06T01:13:09;100476.39;;;4.14;77.99
60642;BME280;46837;52.446;-1.930;2024-03-06T01:14:09;100475.75;;;4.14;77.99
60642;BME280;46837;52.446;-1.930;2024-03-06T01:15:09;100476.92;;;4.14;77.99
60642;BME280;46837;52.446;-1.930;2024-03-06T01:16:09;100475.67;;;4.09;77.90
60642;BME280;46837;52.446;-1.930;2024-03-06T01:17:09;100473.44;;;4.06;77.99
60642;BME280;46837;52.446;-1.930;2024-03-06T01:18:09;100475.70;;;4.10;78.15
60642;BME280;46837;52.446;-1.930;2024-03-06T01:19:09;100475.54;;;4.10;77.99
60642;BME280;46837;52.446;-1.930;2024-03-06T01:20:09;100474.05;;;4.09;77.97
60642;BME280;46837;52.446;-1.930;2024-03-06T01:21:09;100472.07;;;4.08;78.04
60642;BME280;46837;52.446;-1.930;2024-03-06T01:22:09;100471.63;;;4.08;78.01
60642;BME280;46837;52.446;-1.930;2024-03-06T01:23:09;100470.81;;;4.06;78.02
60642;BME280;46837;52.446;-1.930;2024-03-06T01:24:09;100474.27;;;4.08;78.14
60642;BME280;46837;52.446;-1.930;2024-03-06T01:25:09;100474.34;;;4.08;78.12
60642;BME280;46837;52.446;-1.930;2024-03-06T01:26:09;100474.88;;;4.08;78.07
60642;BME280;46837;52.446;-1.930;2024-03-06T01:27:09;100473.18;;;4.07;77.99
60642;BME280;46837;52.446;-1.930;2024-03-06T01:28:09;100473.54;;;4.05;77.91
60642;BME280;46837;52.446;-1.930;2024-03-06T01:29:09;100472.56;;;4.03;77.91
60642;BME280;46837;52.446;-1.930;2024-03-06T01:30:09;100478.57;;;4.00;77.98
60642;BME280;46837;52.446;-1.930;2024-03-06T01:31:09;100475.74;;;3.96;78.22
60642;BME280;46837;52.446;-1.930;2024-03-06T01:32:09;100475.79;;;3.96;78.42
60642;BME280;46837;52.446;-1.930;2024-03-06T01:33:09;100477.79;;;3.95;78.34
60642;BME280;46837;52.446;-1.930;2024-03-06T01:34:09;100476.86;;;3.94;78.42
60642;BME280;46837;52.446;-1.930;2024-03-06T01:35:09;100471.17;;;3.95;78.40
60642;BME280;46837;52.446;-1.930;2024-03-06T01:36:09;100475.51;;;3.93;78.40
60642;BME280;46837;52.446;-1.930;2024-03-06T01:37:09;100476.27;;;3.93;78.50
60642;BME280;46837;52.446;-1.930;2024-03-06T01:38:09;100472.65;;;3.88;78.37
60642;BME280;46837;52.446;-1.930;2024-03-06T01:39:09;100477.07;;;3.79;78.40
60642;BME280;46837;52.446;-1.930;2024-03-06T01:40:09;100478.53;;;3.77;78.65
60642;BME280;46837;52.446;-1.930;2024-03-06T01:41:09;100481.85;;;3.80;78.75
60642;BME280;46837;52.446;-1.930;2024-03-06T01:42:09;100483.29;;;3.76;78.72
60642;BME280;46837;52.446;-1.930;2024-03-06T01:44:09;100482.92;;;3.76;79.00
60642;BME280;46837;52.446;-1.930;2024-03-06T01:45:09;100481.36;;;3.75;78.95
60642;BME280;46837;52.446;-1.930;2024-03-06T01:46:09;100483.32;;;3.77;78.98
60642;BME280;46837;52.446;-1.930;2024-03-06T01:47:09;100481.48;;;3.78;78.92
60642;BME280;46837;52.446;-1.930;2024-03-06T01:48:09;100482.60;;;3.79;78.91
60642;BME280;46837;52.446;-1.930;2024-03-06T01:49:09;100481.45;;;3.79;78.78
60642;BME280;46837;52.446;-1.930;2024-03-06T01:50:11;100478.35;;;3.78;78.78
60642;BME280;46837;52.446;-1.930;2024-03-06T01:51:09;100476.18;;;3.77;78.87
60642;BME280;46837;52.446;-1.930;2024-03-06T01:52:10;100478.16;;;3.77;78.90
60642;BME280;46837;52.446;-1.930;2024-03-06T01:53:09;100473.46;;;3.79;78.87
60642;BME280;46837;52.446;-1.930;2024-03-06T01:54:09;100473.66;;;3.80;78.71
60642;BME280;46837;52.446;-1.930;2024-03-06T01:55:09;100474.59;;;3.77;78.86
60642;BME280;46837;52.446;-1.930;2024-03-06T01:56:09;100471.98;;;3.78;78.85
60642;BME280;46837;52.446;-1.930;2024-03-06T01:57:09;100473.45;;;3.78;78.85
60642;BME280;46837;52.446;-1.930;2024-03-06T01:58:09;100471.79;;;3.78;78.90
60642;BME280;46837;52.446;-1.930;2024-03-06T01:59:09;100474.80;;;3.77;78.86
60642;BME280;46837;52.446;-1.930;2024-03-06T02:00:09;100472.54;;;3.79;78.88
60642;BME280;46837;52.446;-1.930;2024-03-06T02:01:09;100476.29;;;3.78;78.79
60642;BME280;46837;52.446;-1.930;2024-03-06T02:02:09;100473.36;;;3.79;78.68
60642;BME280;46837;52.446;-1.930;2024-03-06T02:03:09;100474.95;;;3.81;78.65
60642;BME280;46837;52.446;-1.930;2024-03-06T02:04:09;100476.98;;;3.83;78.50
60642;BME280;46837;52.446;-1.930;2024-03-06T02:05:09;100476.77;;;3.78;78.30
60642;BME280;46837;52.446;-1.930;2024-03-06T02:06:09;100478.64;;;3.75;78.17
60642;BME280;46837;52.446;-1.930;2024-03-06T02:07:11;100482.59;;;3.73;78.16
60642;BME280;46837;52.446;-1.930;2024-03-06T02:08:09;100481.39;;;3.73;78.18
60642;BME280;46837;52.446;-1.930;2024-03-06T02:09:09;100479.18;;;3.71;78.12
60642;BME280;46837;52.446;-1.930;2024-03-06T02:10:09;100480.45;;;3.72;78.13
60642;BME280;46837;52.446;-1.930;2024-03-06T02:11:09;100482.12;;;3.72;78.11
60642;BME280;46837;52.446;-1.930;2024-03-06T02:12:09;100482.38;;;3.71;78.17
60642;BME280;46837;52.446;-1.930;2024-03-06T02:13:09;100485.00;;;3.69;78.18
60642;BME280;46837;52.446;-1.930;2024-03-06T02:14:09;100483.68;;;3.68;78.27
60642;BME280;46837;52.446;-1.930;2024-03-06T02:15:09;100482.30;;;3.68;78.26
60642;BME280;46837;52.446;-1.930;2024-03-06T02:16:09;100486.19;;;3.62;78.27
60642;BME280;46837;52.446;-1.930;2024-03-06T02:17:09;100487.39;;;3.54;78.59
60642;BME280;46837;52.446;-1.930;2024-03-06T02:18:09;100484.23;;;3.51;78.89
60642;BME280;46837;52.446;-1.930;2024-03-06T02:19:09;100485.69;;;3.54;79.00
60642;BME280;46837;52.446;-1.930;2024-03-06T02:20:15;100488.79;;;3.56;78.90
60642;BME280;46837;52.446;-1.930;2024-03-06T02:21:10;100488.61;;;3.57;78.76
60642;BME280;46837;52.446;-1.930;2024-03-06T02:22:11;100491.14;;;3.55;78.72
60642;BME280;46837;52.446;-1.930;2024-03-06T02:23:09;100489.26;;;3.54;78.84
60642;BME280;46837;52.446;-1.930;2024-03-06T02:24:09;100488.94;;;3.57;78.83
60642;BME280;46837;52.446;-1.930;2024-03-06T02:25:09;100486.95;;;3.54;78.75
60642;BME280;46837;52.446;-1.930;2024-03-06T02:26:10;100486.62;;;3.57;78.83
60642;BME280;46837;52.446;-1.930;2024-03-06T02:27:09;100485.24;;;3.57;78.70
60642;BME280;46837;52.446;-1.930;2024-03-06T02:28:09;100485.84;;;3.58;78.58
60642;BME280;46837;52.446;-1.930;2024-03-06T02:29:09;100482.85;;;3.57;78.63
60642;BME280;46837;52.446;-1.930;2024-03-06T02:30:09;100483.32;;;3.55;78.65
60642;BME280;46837;52.446;-1.930;2024-03-06T02:31:09;100484.56;;;3.54;78.70
60642;BME280;46837;52.446;-1.930;2024-03-06T02:32:09;100483.24;;;3.52;78.82
60642;BME280;46837;52.446;-1.930;2024-03-06T02:33:09;100488.02;;;3.55;78.90
60642;BME280;46837;52.446;-1.930;2024-03-06T02:34:09;100483.91;;;3.54;78.75
60642;BME280;46837;52.446;-1.930;2024-03-06T02:35:11;100489.05;;;3.57;78.78
60642;BME280;46837;52.446;-1.930;2024-03-06T02:36:09;100486.49;;;3.58;78.56
60642;BME280;46837;52.446;-1.930;2024-03-06T02:37:09;100483.43;;;3.56;78.56
60642;BME280;46837;52.446;-1.930;2024-03-06T02:38:09;100483.73;;;3.55;78.55
60642;BME280;46837;52.446;-1.930;2024-03-06T02:39:11;100484.68;;;3.54;78.53
60642;BME280;46837;52.446;-1.930;2024-03-06T02:40:10;100485.05;;;3.54;78.59
60642;BME280;46837;52.446;-1.930;2024-03-06T02:41:09;100482.86;;;3.53;78.61
60642;BME280;46837;52.446;-1.930;2024-03-06T02:42:09;100480.39;;;3.50;78.60
60642;BME280;46837;52.446;-1.930;2024-03-06T02:43:09;100481.12;;;3.50;78.71
60642;BME280;46837;52.446;-1.930;2024-03-06T02:44:09;100480.11;;;3.50;78.84
60642;BME280;46837;52.446;-1.930;2024-03-06T02:45:09;100483.49;;;3.51;78.73
60642;BME280;46837;52.446;-1.930;2024-03-06T02:46:09;100481.10;;;3.51;78.53
60642;BME280;46837;52.446;-1.930;2024-03-06T02:47:09;100480.23;;;3.47;78.55
60642;BME280;46837;52.446;-1.930;2024-03-06T02:48:09;100477.24;;;3.46;78.55
60642;BME280;46837;52.446;-1.930;2024-03-06T02:49:11;100477.18;;;3.44;78.49
60642;BME280;46837;52.446;-1.930;2024-03-06T02:50:09;100475.90;;;3.37;78.43
60642;BME280;46837;52.446;-1.930;2024-03-06T02:51:09;100472.88;;;3.34;78.83
60642;BME280;46837;52.446;-1.930;2024-03-06T02:52:09;100476.78;;;3.27;78.82
60642;BME280;46837;52.446;-1.930;2024-03-06T02:53:09;100474.10;;;3.25;79.04
60642;BME280;46837;52.446;-1.930;2024-03-06T02:54:09;100479.26;;;3.23;79.27
60642;BME280;46837;52.446;-1.930;2024-03-06T02:55:09;100477.82;;;3.25;79.39
60642;BME280;46837;52.446;-1.930;2024-03-06T02:56:15;100479.52;;;3.28;79.37
60642;BME280;46837;52.446;-1.930;2024-03-06T02:57:09;100475.27;;;3.25;79.17
60642;BME280;46837;52.446;-1.930;2024-03-06T02:58:09;100477.50;;;3.25;79.38
60642;BME280;46837;52.446;-1.930;2024-03-06T02:59:09;100472.61;;;3.24;79.30
60642;BME280;46837;52.446;-1.930;2024-03-06T03:00:09;100472.41;;;3.20;79.27
60642;BME280;46837;52.446;-1.930;2024-03-06T03:01:09;100473.08;;;3.22;79.49
60642;BME280;46837;52.446;-1.930;2024-03-06T03:02:09;100472.16;;;3.24;79.27
60642;BME280;46837;52.446;-1.930;2024-03-06T03:03:09;100471.59;;;3.21;79.23
60642;BME280;46837;52.446;-1.930;2024-03-06T03:04:11;100474.18;;;3.21;79.34
60642;BME280;46837;52.446;-1.930;2024-03-06T03:05:09;100472.77;;;3.24;79.32
60642;BME280;46837;52.446;-1.930;2024-03-06T03:06:09;100470.22;;;3.24;79.24
60642;BME280;46837;52.446;-1.930;2024-03-06T03:07:09;100473.57;;;3.25;79.21
60642;BME280;46837;52.446;-1.930;2024-03-06T03:08:09;100472.67;;;3.26;79.11
60642;BME280;46837;52.446;-1.930;2024-03-06T03:09:09;100474.96;;;3.23;79.08
60642;BME280;46837;52.446;-1.930;2024-03-06T03:10:09;100472.86;;;3.23;79.23
60642;BME280;46837;52.446;-1.930;2024-03-06T03:11:09;100474.96;;;3.23;79.24
60642;BME280;46837;52.446;-1.930;2024-03-06T03:12:09;100478.48;;;3.21;79.28
60642;BME280;46837;52.446;-1.930;2024-03-06T03:13:09;100478.89;;;3.20;79.12
60642;BME280;46837;52.446;-1.930;2024-03-06T03:14:09;100477.55;;;3.16;78.78
60642;BME280;46837;52.446;-1.930;2024-03-06T03:15:09;100481.39;;;3.15;78.86
60642;BME280;46837;52.446;-1.930;2024-03-06T03:16:09;100479.11;;;3.16;78.88
60642;BME280;46837;52.446;-1.930;2024-03-06T03:17:09;100481.35;;;3.14;78.82
60642;BME280;46837;52.446;-1.930;2024-03-06T03:18:09;100483.07;;;3.12;78.73
60642;BME280;46837;52.446;-1.930;2024-03-06T03:19:09;100480.82;;;3.11;78.69
60642;BME280;46837;52.446;-1.930;2024-03-06T03:20:13;100477.82;;;3.10;78.65
60642;BME280;46837;52.446;-1.930;2024-03-06T03:21:09;100479.48;;;3.11;78.67
60642;BME280;46837;52.446;-1.930;2024-03-06T03:22:09;100479.69;;;3.10;78.62
60642;BME280;46837;52.446;-1.930;2024-03-06T03:23:09;100480.84;;;3.09;78.61
60642;BME280;46837;52.446;-1.930;2024-03-06T03:24:09;100486.61;;;3.10;78.67
60642;BME280;46837;52.446;-1.930;2024-03-06T03:25:12;100483.37;;;3.07;78.60
60642;BME280;46837;52.446;-1.930;2024-03-06T03:26:09;100482.93;;;3.07;78.76
60642;BME280;46837;52.446;-1.930;2024-03-06T03:27:09;100486.61;;;3.07;78.73
60642;BME280;46837;52.446;-1.930;2024-03-06T03:28:09;100484.39;;;3.07;78.75
60642;BME280;46837;52.446;-1.930;2024-03-06T03:29:09;100484.97;;;3.05;78.81
60642;BME280;46837;52.446;-1.930;2024-03-06T03:30:09;100482.55;;;3.05;78.84
60642;BME280;46837;52.446;-1.930;2024-03-06T03:31:09;100481.18;;;3.04;78.84
60642;BME280;46837;52.446;-1.930;2024-03-06T03:32:09;100480.90;;;3.07;78.78
60642;BME280;46837;52.446;-1.930;2024-03-06T03:33:09;100480.03;;;3.09;78.67
60642;BME280;46837;52.446;-1.930;2024-03-06T03:34:09;100484.54;;;3.08;78.59
60642;BME280;46837;52.446;-1.930;2024-03-06T03:35:09;100477.10;;;3.07;78.59
60642;BME280;46837;52.446;-1.930;2024-03-06T03:36:09;100481.16;;;3.09;78.63
60642;BME280;46837;52.446;-1.930;2024-03-06T03:37:09;100481.24;;;3.09;78.53
60642;BME280;46837;52.446;-1.930;2024-03-06T03:38:09;100482.70;;;3.09;78.61
60642;BME280;46837;52.446;-1.930;2024-03-06T03:39:09;100483.32;;;3.11;78.67
60642;BME280;46837;52.446;-1.930;2024-03-06T03:40:09;100482.54;;;3.13;78.58
60642;BME280;46837;52.446;-1.930;2024-03-06T03:41:09;100484.33;;;3.12;78.56
60642;BME280;46837;52.446;-1.930;2024-03-06T03:42:09;100487.18;;;3.15;78.64
60642;BME280;46837;52.446;-1.930;2024-03-06T03:43:10;100488.22;;;3.15;78.55
60642;BME280;46837;52.446;-1.930;2024-03-06T03:44:09;100486.57;;;3.18;78.69
60642;BME280;46837;52.446;-1.930;2024-03-06T03:45:09;100490.41;;;3.22;78.59
60642;BME280;46837;52.446;-1.930;2024-03-06T03:46:09;100489.38;;;3.23;78.47
60642;BME280;46837;52.446;-1.930;2024-03-06T03:47:09;100486.79;;;3.27;78.47
60642;BME280;46837;52.446;-1.930;2024-03-06T03:48:09;100486.62;;;3.31;78.38
60642;BME280;46837;52.446;-1.930;2024-03-06T03:49:09;100491.38;;;3.33;78.33
60642;BME280;46837;52.446;-1.930;2024-03-06T03:50:09;100489.68;;;3.36;78.39
60642;BME280;46837;52.446;-1.930;2024-03-06T03:51:09;100486.49;;;3.39;78.38
60642;BME280;46837;52.446;-1.930;2024-03-06T03:52:09;100484.06;;;3.42;78.38
60642;BME280;46837;52.446;-1.930;2024-03-06T03:53:09;100484.58;;;3.42;78.48
60642;BME280;46837;52.446;-1.930;2024-03-06T03:54:09;100484.31;;;3.44;78.56
60642;BME280;46837;52.446;-1.930;2024-03-06T03:55:09;100489.07;;;3.50;78.56
60642;BME280;46837;52.446;-1.930;2024-03-06T03:56:09;100486.53;;;3.55;78.40
60642;BME280;46837;52.446;-1.930;2024-03-06T03:57:09;100484.94;;;3.58;78.35
60642;BME280;46837;52.446;-1.930;2024-03-06T03:58:09;100488.16;;;3.61;78.35
60642;BME280;46837;52.446;-1.930;2024-03-06T03:59:09;100484.89;;;3.59;78.37
60642;BME280;46837;52.446;-1.930;2024-03-06T04:00:13;100488.45;;;3.63;78.47
60642;BME280;46837;52.446;-1.930;2024-03-06T04:01:10;100488.92;;;3.67;78.39
60642;BME280;46837;52.446;-1.930;2024-03-06T04:02:09;100485.44;;;3.66;78.20
60642;BME280;46837;52.446;-1.930;2024-03-06T04:03:09;100488.82;;;3.66;78.31
60642;BME280;46837;52.446;-1.930;2024-03-06T04:04:09;100486.18;;;3.72;78.41
60642;BME280;46837;52.446;-1.930;2024-03-06T04:05:09;100487.69;;;3.71;78.25
60642;BME280;46837;52.446;-1.930;2024-03-06T04:06:09;100485.80;;;3.72;78.34
60642;BME280;46837;52.446;-1.930;2024-03-06T04:07:09;100485.71;;;3.76;78.35
60642;BME280;46837;52.446;-1.930;2024-03-06T04:08:11;100486.74;;;3.78;78.20
60642;BME280;46837;52.446;-1.930;2024-03-06T04:09:09;100490.64;;;3.80;78.09
60642;BME280;46837;52.446;-1.930;2024-03-06T04:10:09;100486.18;;;3.83;78.04
60642;BME280;46837;52.446;-1.930;2024-03-06T04:11:09;100486.36;;;3.85;77.91
60642;BME280;46837;52.446;-1.930;2024-03-06T04:12:09;100486.84;;;3.89;77.92
60642;BME280;46837;52.446;-1.930;2024-03-06T04:13:09;100487.80;;;3.92;77.77
60642;BME280;46837;52.446;-1.930;2024-03-06T04:14:09;100486.15;;;3.91;77.71
60642;BME280;46837;52.446;-1.930;2024-03-06T04:15:09;100488.25;;;3.92;77.75
60642;BME280;46837;52.446;-1.930;2024-03-06T04:16:09;100492.52;;;3.94;77.75
60642;BME280;46837;52.446;-1.930;2024-03-06T04:17:09;100493.28;;;3.97;77.76
60642;BME280;46837;52.446;-1.930;2024-03-06T04:18:09;100493.62;;;3.99;77.63
60642;BME280;46837;52.446;-1.930;2024-03-06T04:19:09;100492.07;;;4.03;77.57
60642;BME280;46837;52.446;-1.930;2024-03-06T04:20:09;100493.54;;;4.05;77.48
60642;BME280;46837;52.446;-1.930;2024-03-06T04:21:09;100491.68;;;4.07;77.44
60642;BME280;46837;52.446;-1.930;2024-03-06T04:22:09;100492.48;;;4.07;77.34
60642;BME280;46837;52.446;-1.930;2024-03-06T04:23:09;100490.59;;;4.07;77.41
60642;BME280;46837;52.446;-1.930;2024-03-06T04:24:09;100492.20;;;4.05;77.47
60642;BME280;46837;52.446;-1.930;2024-03-06T04:25:09;100488.09;;;4.05;77.50
60642;BME280;46837;52.446;-1.930;2024-03-06T04:26:09;100489.96;;;4.06;77.53
60642;BME280;46837;52.446;-1.930;2024-03-06T04:27:09;100491.75;;;4.08;77.52
60642;BME280;46837;52.446;-1.930;2024-03-06T04:28:10;100494.83;;;4.11;77.65
60642;BME280;46837;52.446;-1.930;2024-03-06T04:29:09;100495.52;;;4.13;77.79
60642;BME280;46837;52.446;-1.930;2024-03-06T04:30:09;100494.25;;;4.11;77.91
60642;BME280;46837;52.446;-1.930;2024-03-06T04:31:09;100496.77;;;4.14;78.15
60642;BME280;46837;52.446;-1.930;2024-03-06T04:32:09;100496.17;;;4.13;78.18
60642;BME280;46837;52.446;-1.930;2024-03-06T04:33:09;100498.81;;;4.13;78.31
60642;BME280;46837;52.446;-1.930;2024-03-06T04:34:09;100501.24;;;4.16;78.50
60642;BME280;46837;52.446;-1.930;2024-03-06T04:35:09;100500.05;;;4.16;78.56
60642;BME280;46837;52.446;-1.930;2024-03-06T04:36:11;100498.48;;;4.16;78.86
60642;BME280;46837;52.446;-1.930;2024-03-06T04:37:09;100502.50;;;4.18;78.93
60642;BME280;46837;52.446;-1.930;2024-03-06T04:38:09;100502.35;;;4.20;79.07
60642;BME280;46837;52.446;-1.930;2024-03-06T04:39:10;100501.84;;;4.22;79.21
60642;BME280;46837;52.446;-1.930;2024-03-06T04:40:10;100501.28;;;4.24;79.32
60642;BME280;46837;52.446;-1.930;2024-03-06T04:41:09;100505.02;;;4.26;79.35
60642;BME280;46837;52.446;-1.930;2024-03-06T04:42:09;100504.40;;;4.27;79.41
60642;BME280;46837;52.446;-1.930;2024-03-06T04:43:09;100504.65;;;4.26;79.47
60642;BME280;46837;52.446;-1.930;2024-03-06T04:44:09;100503.63;;;4.24;79.64
60642;BME280;46837;52.446;-1.930;2024-03-06T04:45:15;100509.86;;;4.28;79.84
60642;BME280;46837;52.446;-1.930;2024-03-06T04:46:13;100509.76;;;4.27;79.93
60642;BME280;46837;52.446;-1.930;2024-03-06T04:47:09;100509.58;;;4.28;80.06
60642;BME280;46837;52.446;-1.930;2024-03-06T04:48:09;100508.39;;;4.28;80.17
60642;BME280;46837;52.446;-1.930;2024-03-06T04:49:09;100508.14;;;4.31;80.25
60642;BME280;46837;52.446;-1.930;2024-03-06T04:50:11;100512.69;;;4.31;80.33
60642;BME280;46837;52.446;-1.930;2024-03-06T04:51:09;100509.77;;;4.34;80.47
60642;BME280;46837;52.446;-1.930;2024-03-06T04:52:09;100509.66;;;4.35;80.62
60642;BME280;46837;52.446;-1.930;2024-03-06T04:53:09;100510.13;;;4.36;80.67
60642;BME280;46837;52.446;-1.930;2024-03-06T04:54:09;100516.12;;;4.37;80.70
60642;BME280;46837;52.446;-1.930;2024-03-06T04:55:09;100515.13;;;4.38;80.72
60642;BME280;46837;52.446;-1.930;2024-03-06T04:56:09;100514.37;;;4.40;80.62
60642;BME280;46837;52.446;-1.930;2024-03-06T04:57:09;100513.68;;;4.38;80.52
60642;BME280;46837;52.446;-1.930;2024-03-06T04:58:09;100515.27;;;4.40;80.55
60642;BME280;46837;52.446;-1.930;2024-03-06T04:59:09;100515.69;;;4.39;80.48
60642;BME280;46837;52.446;-1.930;2024-03-06T05:00:11;100519.36;;;4.40;80.61
60642;BME280;46837;52.446;-1.930;2024-03-06T05:01:09;100518.73;;;4.39;80.63
60642;BME280;46837;52.446;-1.930;2024-03-06T05:02:09;100521.33;;;4.36;80.84
60642;BME280;46837;52.446;-1.930;2024-03-06T05:03:09;100524.31;;;4.30;81.31
60642;BME280;46837;52.446;-1.930;2024-03-06T05:04:09;100524.15;;;4.30;81.70
60642;BME280;46837;52.446;-1.930;2024-03-06T05:05:09;100525.88;;;4.23;81.92
60642;BME280;46837;52.446;-1.930;2024-03-06T05:06:09;100524.99;;;4.23;82.41
60642;BME280;46837;52.446;-1.930;2024-03-06T05:07:09;100524.57;;;4.26;82.50
60642;BME280;46837;52.446;-1.930;2024-03-06T05:08:09;100525.23;;;4.25;82.61
60642;BME280;46837;52.446;-1.930;2024-03-06T05:09:09;100524.51;;;4.28;82.83
60642;BME280;46837;52.446;-1.930;2024-03-06T05:10:10;100523.06;;;4.30;82.96
60642;BME280;46837;52.446;-1.930;2024-03-06T05:11:09;100526.96;;;4.32;82.95
60642;BME280;46837;52.446;-1.930;2024-03-06T05:12:09;100526.64;;;4.29;83.09
60642;BME280;46837;52.446;-1.930;2024-03-06T05:13:09;100527.49;;;4.26;83.42
60642;BME280;46837;52.446;-1.930;2024-03-06T05:14:09;100531.12;;;4.33;83.55